Time;durP1;ratioP1;P1;durP2;ratioP2;P2;SDS_P1;SDS_P2;PMS_P1;PMS_P2;Temp;Humidity;BMP_temperature;BMP_pressure;BME280_temperature;BME280_humidity;BME280_pressure;Samples;Min_cycle;Max_cycle;Signal;HPM_P1;HPM_P2
2024/04/22 00:01:17;;;;;;;23.60;17.30;;;;;;;;;;5355543;26;19996;-93
2024/04/22 00:03:46;;;;;;;17.73;15.57;;;;;;;;;;5355850;26;19996;-91
2024/04/22 00:06:19;;;;;;;18.60;13.98;;;;;;;;;;5355898;26;20009;-92
2024/04/22 00:08:47;;;;;;;22.00;16.50;;;;;;;;;;5355826;26;19996;-93
2024/04/22 00:11:21;;;;;;;24.15;17.73;;;;;;;;;;5355472;26;20076;-93
2024/04/22 00:13:51;;;;;;;21.35;16.48;;;;;;;;;;5355686;26;20133;-94
2024/04/22 00:28:19;;;;;;;19.27;15.73;;;;;;;;;;5386248;26;20035;-93
2024/04/22 00:30:54;;;;;;;21.73;17.27;;;;;;;;;;5355466;26;20505;-93
2024/04/22 00:33:21;;;;;;;18.77;15.30;;;;;;;;;;5355717;26;19997;-93
2024/04/22 00:35:56;;;;;;;22.58;15.82;;;;;;;;;;5344088;26;20004;-94
2024/04/22 00:41:35;;;;;;;20.85;16.23;;;;;;;;;;5353617;26;20011;-92
2024/04/22 00:44:07;;;;;;;19.38;14.50;;;;;;;;;;5320541;26;20070;-92
2024/04/22 00:46:34;;;;;;;18.67;15.57;;;;;;;;;;5320465;26;20037;-93
2024/04/22 00:49:13;;;;;;;23.38;17.55;;;;;;;;;;5321381;26;19997;-92
2024/04/22 00:55:04;;;;;;;18.15;14.57;;;;;;;;;;5355914;26;20053;-91
2024/04/22 00:58:12;;;;;;;19.90;15.90;;;;;;;;;;5355599;26;19996;-92
2024/04/22 01:00:51;;;;;;;17.67;14.63;;;;;;;;;;5342281;26;20032;-93
2024/04/22 01:03:29;;;;;;;15.65;13.27;;;;;;;;;;5355049;26;20011;-92
2024/04/22 01:12:53;;;;;;;19.45;11.90;;;;;;;;;;5180371;27;20521;-92
2024/04/22 01:15:19;;;;;;;18.80;15.48;;;;;;;;;;5273479;26;20038;-91
2024/04/22 01:17:52;;;;;;;19.02;16.55;;;;;;;;;;5473661;21;20014;-91
2024/04/22 01:23:12;;;;;;;14.88;12.98;;;;;;;;;;5315683;27;20020;-93
2024/04/22 01:25:38;;;;;;;20.80;18.42;;;;;;;;;;5285991;27;20006;-92
2024/04/22 01:28:21;;;;;;;18.40;14.80;;;;;;;;;;5286197;27;20026;-92
2024/04/22 01:30:47;;;;;;;16.10;13.63;;;;;;;;;;5285873;27;20097;-93
2024/04/22 01:33:17;;;;;;;18.67;15.60;;;;;;;;;;5286000;27;20005;-93
2024/04/22 01:35:43;;;;;;;20.50;16.05;;;;;;;;;;5281518;27;20347;-91
2024/04/22 01:49:51;;;;;;;16.02;13.73;;;;;;;;;;5365579;21;20011;-92
2024/04/22 01:52:20;;;;;;;16.67;14.02;;;;;;;;;;5318601;26;20005;-92
2024/04/22 01:57:50;;;;;;;15.70;13.55;;;;;;;;;;5349513;26;20000;-92
2024/04/22 02:00:22;;;;;;;15.82;13.20;;;;;;;;;;5322079;26;20001;-92
2024/04/22 02:06:03;;;;;;;14.50;12.47;;;;;;;;;;5349382;26;20074;-92
2024/04/22 02:14:40;;;;;;;12.35;10.02;;;;;;;;;;5385580;22;20081;-92
2024/04/22 02:23:21;;;;;;;15.77;13.18;;;;;;;;;;5349172;26;20091;-92
2024/04/22 02:25:50;;;;;;;14.88;12.68;;;;;;;;;;5318666;26;20012;-92
2024/04/22 02:31:20;;;;;;;14.07;12.27;;;;;;;;;;5320005;26;20008;-91
2024/04/22 02:36:50;;;;;;;14.30;11.73;;;;;;;;;;5350108;26;20409;-92
2024/04/22 02:39:26;;;;;;;14.52;12.60;;;;;;;;;;5289786;26;20276;-93
2024/04/22 02:41:52;;;;;;;17.27;14.90;;;;;;;;;;5318122;26;20001;-92
2024/04/22 02:44:18;;;;;;;17.52;15.18;;;;;;;;;;5318331;26;20008;-92
2024/04/22 02:47:00;;;;;;;14.15;11.13;;;;;;;;;;5318388;26;20012;-93
2024/04/22 02:49:35;;;;;;;16.80;13.45;;;;;;;;;;5316411;26;20001;-93
2024/04/22 02:52:02;;;;;;;13.55;11.48;;;;;;;;;;5284531;27;19998;-93
2024/04/22 03:00:27;;;;;;;16.77;13.70;;;;;;;;;;5357364;26;20072;-93
2024/04/22 03:02:54;;;;;;;16.90;13.48;;;;;;;;;;5318851;26;20001;-93
2024/04/22 03:05:20;;;;;;;17.42;14.70;;;;;;;;;;5321224;26;20005;-92
2024/04/22 03:07:53;;;;;;;16.40;14.40;;;;;;;;;;5321382;26;20032;-93
2024/04/22 03:10:37;;;;;;;16.33;13.68;;;;;;;;;;5321114;26;20070;-93
2024/04/22 03:13:25;;;;;;;16.20;14.52;;;;;;;;;;5322062;26;20107;-93
2024/04/22 03:15:54;;;;;;;19.02;16.35;;;;;;;;;;5321474;26;20008;-94
2024/04/22 03:18:20;;;;;;;18.00;16.20;;;;;;;;;;5321217;26;20012;-93
2024/04/22 03:20:56;;;;;;;17.65;15.55;;;;;;;;;;5307364;26;20140;-93
2024/04/22 03:23:22;;;;;;;17.45;15.57;;;;;;;;;;5298662;27;20018;-93
2024/04/22 03:26:07;;;;;;;19.55;17.50;;;;;;;;;;5287399;27;20104;-94
2024/04/22 03:28:38;;;;;;;17.05;15.32;;;;;;;;;;5287358;27;20002;-93
2024/04/22 03:31:10;;;;;;;19.63;17.38;;;;;;;;;;5287233;27;20076;-93
2024/04/22 03:33:38;;;;;;;19.67;17.67;;;;;;;;;;5287650;27;19998;-93
2024/04/22 03:36:07;;;;;;;19.63;16.85;;;;;;;;;;5316357;26;20001;-93
2024/04/22 03:44:29;;;;;;;17.35;15.63;;;;;;;;;;5349642;26;20008;-94
2024/04/22 03:53:20;;;;;;;17.38;15.57;;;;;;;;;;5328142;26;20509;-93
2024/04/22 03:55:46;;;;;;;20.15;18.15;;;;;;;;;;5288070;27;20017;-92
2024/04/22 03:58:13;;;;;;;21.73;18.98;;;;;;;;;;5286146;27;19997;-92
2024/04/22 04:00:51;;;;;;;20.77;18.77;;;;;;;;;;5286869;27;20012;-94
2024/04/22 04:03:21;;;;;;;18.83;16.85;;;;;;;;;;5286976;27;20009;-94
2024/04/22 04:06:09;;;;;;;18.02;15.98;;;;;;;;;;5288271;27;20008;-93
2024/04/22 04:11:39;;;;;;;19.98;16.65;;;;;;;;;;5387440;26;20039;-93
2024/04/22 04:14:38;;;;;;;20.45;18.27;;;;;;;;;;5355319;26;19996;-92
2024/04/22 04:17:05;;;;;;;18.73;16.73;;;;;;;;;;5355406;26;19996;-92
2024/04/22 04:26:10;;;;;;;21.60;19.25;;;;;;;;;;5280823;27;20141;-92
2024/04/22 04:32:04;;;;;;;18.90;16.88;;;;;;;;;;5247823;27;20035;-93
2024/04/22 04:34:31;;;;;;;22.00;19.98;;;;;;;;;;5247732;27;20032;-92
2024/04/22 04:52:55;;;;;;;20.23;17.95;;;;;;;;;;5215970;27;20496;-94
2024/04/22 04:55:21;;;;;;;23.75;18.17;;;;;;;;;;5306562;27;20006;-92
2024/04/22 04:57:53;;;;;;;21.13;18.92;;;;;;;;;;5252080;27;19998;-91
2024/04/22 05:00:19;;;;;;;21.27;19.05;;;;;;;;;;5252067;27;20014;-92
2024/04/22 05:03:04;;;;;;;21.38;19.27;;;;;;;;;;5252228;27;20064;-93
2024/04/22 05:08:37;;;;;;;21.23;18.98;;;;;;;;;;5284981;27;20017;-95
2024/04/22 05:11:26;;;;;;;22.95;18.73;;;;;;;;;;5295332;27;20006;-93
2024/04/22 05:13:56;;;;;;;19.90;17.17;;;;;;;;;;5295650;27;20400;-92
2024/04/22 05:16:22;;;;;;;20.58;18.52;;;;;;;;;;5308059;27;20402;-92
2024/04/22 05:18:48;;;;;;;19.60;17.58;;;;;;;;;;5308603;27;19998;-92
2024/04/22 05:21:14;;;;;;;21.65;19.58;;;;;;;;;;5307902;27;20002;-93
2024/04/22 05:23:41;;;;;;;31.88;22.42;;;;;;;;;;5308621;27;20360;-92
2024/04/22 05:26:10;;;;;;;43.00;22.75;;;;;;;;;;5308950;27;20018;-93
2024/04/22 05:28:36;;;;;;;30.20;27.13;;;;;;;;;;5254209;27;20014;-92
2024/04/22 05:31:09;;;;;;;20.00;17.95;;;;;;;;;;5311900;27;20439;-92
2024/04/22 05:36:28;;;;;;;21.45;19.40;;;;;;;;;;5250937;27;20070;-93
2024/04/22 05:38:54;;;;;;;21.13;19.02;;;;;;;;;;5286808;27;20018;-93
2024/04/22 05:41:39;;;;;;;24.35;22.15;;;;;;;;;;5277099;27;20022;-94
2024/04/22 05:44:09;;;;;;;22.08;19.98;;;;;;;;;;5303243;27;20018;-95
2024/04/22 05:46:35;;;;;;;24.67;22.30;;;;;;;;;;5308860;27;20436;-93
2024/04/22 05:52:10;;;;;;;26.17;24.05;;;;;;;;;;5282060;27;20061;-94
2024/04/22 05:54:37;;;;;;;34.03;26.67;;;;;;;;;;5307729;27;20008;-91
2024/04/22 05:57:03;;;;;;;27.80;25.50;;;;;;;;;;5321383;27;19998;-93
2024/04/22 05:59:29;;;;;;;29.40;27.05;;;;;;;;;;5281919;27;20007;-92
2024/04/22 06:01:55;;;;;;;28.92;26.77;;;;;;;;;;5295708;27;20456;-90
2024/04/22 06:04:21;;;;;;;32.42;30.02;;;;;;;;;;5306880;27;20006;-90
2024/04/22 06:06:48;;;;;;;41.28;38.38;;;;;;;;;;5274416;27;20014;-90
2024/04/22 06:09:22;;;;;;;43.60;40.40;;;;;;;;;;5273038;27;20007;-91
2024/04/22 06:11:48;;;;;;;42.90;39.85;;;;;;;;;;5273392;27;19998;-90
2024/04/22 06:14:15;;;;;;;54.20;50.60;;;;;;;;;;5273247;27;20011;-89
2024/04/22 06:16:41;;;;;;;53.75;50.10;;;;;;;;;;5275237;27;20003;-92
2024/04/22 06:19:08;;;;;;;55.50;51.92;;;;;;;;;;5307862;26;20052;-90
2024/04/22 06:21:34;;;;;;;46.53;43.47;;;;;;;;;;5280441;27;19999;-92
2024/04/22 06:24:00;;;;;;;94.75;89.00;;;;;;;;;;5273409;27;20003;-91
2024/04/22 06:26:27;;;;;;;70.55;66.35;;;;;;;;;;5273185;27;19998;-92
2024/04/22 06:28:57;;;;;;;42.88;40.20;;;;;;;;;;5273273;27;20003;-92
2024/04/22 06:31:23;;;;;;;33.15;30.95;;;;;;;;;;5250569;27;20002;-91
2024/04/22 06:33:49;;;;;;;26.83;24.90;;;;;;;;;;5250826;27;20533;-90
2024/04/22 06:36:17;;;;;;;20.20;18.80;;;;;;;;;;5307312;27;20002;-92
2024/04/22 06:38:43;;;;;;;17.10;15.90;;;;;;;;;;5306221;27;20452;-93
2024/04/22 06:41:10;;;;;;;18.80;17.50;;;;;;;;;;5307013;27;20010;-94
2024/04/22 06:43:37;;;;;;;17.80;16.50;;;;;;;;;;5307800;27;20416;-91
2024/04/22 06:46:11;;;;;;;22.13;20.67;;;;;;;;;;5307113;27;20006;-93
2024/04/22 06:48:37;;;;;;;19.00;17.70;;;;;;;;;;5307252;27;20018;-92
2024/04/22 06:51:06;;;;;;;28.30;26.25;;;;;;;;;;5297434;27;19994;-92
2024/04/22 06:53:33;;;;;;;21.98;20.58;;;;;;;;;;5306389;27;20002;-92
2024/04/22 06:55:59;;;;;;;21.70;19.98;;;;;;;;;;5307225;27;20010;-90
2024/04/22 06:58:25;;;;;;;22.75;21.25;;;;;;;;;;5307030;27;20002;-91
2024/04/22 07:00:51;;;;;;;21.23;19.85;;;;;;;;;;5307143;27;19998;-91
2024/04/22 07:03:17;;;;;;;18.65;17.45;;;;;;;;;;5295678;27;20120;-91
2024/04/22 07:05:43;;;;;;;16.25;15.05;;;;;;;;;;5220493;27;20003;-92
2024/04/22 07:08:09;;;;;;;16.35;15.25;;;;;;;;;;5308231;27;19998;-91
2024/04/22 07:10:36;;;;;;;15.38;14.38;;;;;;;;;;5307810;27;20012;-93
2024/04/22 07:13:03;;;;;;;13.27;12.38;;;;;;;;;;5254560;27;19999;-93
2024/04/22 07:15:29;;;;;;;11.02;10.13;;;;;;;;;;5252400;27;20015;-92
2024/04/22 07:17:55;;;;;;;15.55;14.48;;;;;;;;;;5251898;27;19998;-92
2024/04/22 07:20:21;;;;;;;9.52;8.82;;;;;;;;;;5254742;27;20046;-92
2024/04/22 07:22:47;;;;;;;14.13;13.13;;;;;;;;;;5251325;27;20473;-93
2024/04/22 07:25:13;;;;;;;12.63;11.63;;;;;;;;;;5253703;27;20009;-92
2024/04/22 07:27:39;;;;;;;13.02;12.20;;;;;;;;;;5253679;27;20014;-94
2024/04/22 07:30:06;;;;;;;11.13;10.32;;;;;;;;;;5252503;27;20002;-92
2024/04/22 07:32:40;;;;;;;14.88;13.95;;;;;;;;;;5310258;27;20436;-92
2024/04/22 07:35:13;;;;;;;19.30;18.13;;;;;;;;;;5253389;27;20029;-91
2024/04/22 07:37:43;;;;;;;21.25;19.95;;;;;;;;;;5245000;27;20415;-90
2024/04/22 07:40:24;;;;;;;17.50;16.42;;;;;;;;;;5299009;27;20003;-92
2024/04/22 07:42:50;;;;;;;19.38;18.17;;;;;;;;;;5245453;27;20034;-91
2024/04/22 07:45:17;;;;;;;17.85;16.75;;;;;;;;;;5244435;27;20018;-92
2024/04/22 07:47:47;;;;;;;20.73;19.45;;;;;;;;;;5250061;27;20344;-94
2024/04/22 07:50:20;;;;;;;13.98;13.05;;;;;;;;;;5242721;27;20007;-95
2024/04/22 07:52:50;;;;;;;14.30;13.38;;;;;;;;;;5247656;27;20018;-93
2024/04/22 07:55:34;;;;;;;14.02;13.13;;;;;;;;;;5263336;27;20003;-96
2024/04/22 07:58:09;;;;;;;12.73;11.85;;;;;;;;;;5286074;26;20022;-93
2024/04/22 08:00:36;;;;;;;15.77;14.68;;;;;;;;;;5296892;27;20050;-91
2024/04/22 08:03:04;;;;;;;14.07;13.20;;;;;;;;;;5225770;27;20007;-93
2024/04/22 08:05:31;;;;;;;14.13;13.23;;;;;;;;;;5220385;27;20441;-91
2024/04/22 08:08:08;;;;;;;19.95;18.70;;;;;;;;;;5220486;27;20015;-89
2024/04/22 08:10:52;;;;;;;22.48;21.10;;;;;;;;;;5289230;27;19999;-95
2024/04/22 08:13:18;;;;;;;22.17;20.88;;;;;;;;;;5311622;27;20006;-91
2024/04/22 08:15:44;;;;;;;21.73;20.42;;;;;;;;;;5309701;27;20010;-90
2024/04/22 08:18:13;;;;;;;23.55;22.15;;;;;;;;;;5309760;27;20016;-92
2024/04/22 08:20:42;;;;;;;22.55;21.25;;;;;;;;;;5304282;27;20329;-92
2024/04/22 08:23:09;;;;;;;42.42;39.97;;;;;;;;;;5247570;27;20018;-92
2024/04/22 08:25:35;;;;;;;28.23;26.55;;;;;;;;;;5252714;27;20002;-93
2024/04/22 08:28:01;;;;;;;20.75;19.55;;;;;;;;;;5280501;27;20007;-93
2024/04/22 08:30:28;;;;;;;17.42;16.33;;;;;;;;;;5276696;27;20003;-91
2024/04/22 08:32:55;;;;;;;18.02;16.85;;;;;;;;;;5276794;27;20027;-92
2024/04/22 08:35:21;;;;;;;21.30;19.92;;;;;;;;;;5278649;27;20322;-93
2024/04/22 08:37:50;;;;;;;14.43;13.55;;;;;;;;;;5293386;27;20034;-93
2024/04/22 08:40:29;;;;;;;15.10;14.15;;;;;;;;;;5280297;27;20080;-91
2024/04/22 08:42:56;;;;;;;22.33;20.98;;;;;;;;;;5315093;27;19994;-92
2024/04/22 08:45:22;;;;;;;25.27;23.80;;;;;;;;;;5312689;27;20006;-93
2024/04/22 08:50:17;;;;;;;44.28;41.63;;;;;;;;;;5373772;26;20005;-94
2024/04/22 08:52:44;;;;;;;46.70;43.80;;;;;;;;;;5338815;26;20011;-93
2024/04/22 08:55:14;;;;;;;38.95;36.50;;;;;;;;;;5354602;26;20040;-94
2024/04/22 08:57:40;;;;;;;43.03;40.45;;;;;;;;;;5355137;26;20015;-91
2024/04/22 09:00:06;;;;;;;40.60;38.13;;;;;;;;;;5353766;26;20000;-91
2024/04/22 09:02:32;;;;;;;48.55;45.63;;;;;;;;;;5327282;26;20005;-91
2024/04/22 09:04:59;;;;;;;52.92;49.83;;;;;;;;;;5328701;26;20001;-92
2024/04/22 09:07:25;;;;;;;49.55;46.63;;;;;;;;;;5352430;26;20000;-92
2024/04/22 09:09:52;;;;;;;59.75;56.22;;;;;;;;;;5353770;26;20004;-92
2024/04/22 09:12:18;;;;;;;74.53;70.20;;;;;;;;;;5330196;26;20032;-92
2024/04/22 09:14:45;;;;;;;59.53;56.08;;;;;;;;;;5320762;26;20078;-92
2024/04/22 09:17:15;;;;;;;64.25;60.50;;;;;;;;;;5355118;26;20012;-92
2024/04/22 09:19:45;;;;;;;49.15;46.25;;;;;;;;;;5354992;26;20006;-92
2024/04/22 09:22:17;;;;;;;67.75;63.83;;;;;;;;;;5350416;26;20008;-92
2024/04/22 09:24:47;;;;;;;58.20;54.63;;;;;;;;;;5381138;26;20004;-92
2024/04/22 09:27:19;;;;;;;55.33;52.00;;;;;;;;;;5356301;26;20028;-92
2024/04/22 09:30:01;;;;;;;65.65;61.78;;;;;;;;;;5359116;26;20007;-92
2024/04/22 09:32:42;;;;;;;59.63;55.90;;;;;;;;;;5359144;26;20015;-92
2024/04/22 09:35:21;;;;;;;65.78;61.83;;;;;;;;;;5356687;26;19996;-92
2024/04/22 09:37:54;;;;;;;61.13;57.53;;;;;;;;;;5335779;26;20008;-92
2024/04/22 09:40:23;;;;;;;58.70;55.17;;;;;;;;;;5317371;26;19993;-92
2024/04/22 09:42:52;;;;;;;69.15;65.05;;;;;;;;;;5312378;26;20007;-93
2024/04/22 09:45:23;;;;;;;63.13;59.30;;;;;;;;;;5353705;26;20004;-92
2024/04/22 09:48:02;;;;;;;89.65;84.25;;;;;;;;;;5357846;26;20011;-93
2024/04/22 09:50:37;;;;;;;60.30;56.75;;;;;;;;;;5317200;27;20005;-92
2024/04/22 09:56:43;;;;;;;60.35;56.72;;;;;;;;;;5422457;21;20074;-90
2024/04/22 09:59:10;;;;;;;76.40;72.00;;;;;;;;;;5308432;26;19997;-91
2024/04/22 10:01:37;;;;;;;83.78;78.93;;;;;;;;;;5352150;26;20000;-92
2024/04/22 10:04:07;;;;;;;79.43;74.75;;;;;;;;;;5321489;26;19997;-92
2024/04/22 10:06:40;;;;;;;78.57;73.85;;;;;;;;;;5320752;26;20008;-92
2024/04/22 10:09:06;;;;;;;76.63;72.15;;;;;;;;;;5321005;26;20001;-93
2024/04/22 10:11:33;;;;;;;68.40;64.30;;;;;;;;;;5321397;26;20067;-92
2024/04/22 10:14:14;;;;;;;68.18;64.15;;;;;;;;;;5321730;26;20314;-92
2024/04/22 10:16:41;;;;;;;73.20;68.85;;;;;;;;;;5322023;26;20008;-93
2024/04/22 10:19:08;;;;;;;85.78;80.75;;;;;;;;;;5321235;26;20078;-93
2024/04/22 10:21:39;;;;;;;122.55;115.28;;;;;;;;;;5321986;26;20001;-92
2024/04/22 10:24:06;;;;;;;115.05;108.35;;;;;;;;;;5322670;26;19997;-91
2024/04/22 10:26:32;;;;;;;94.80;89.25;;;;;;;;;;5321838;26;20347;-92
2024/04/22 10:29:07;;;;;;;65.60;61.70;;;;;;;;;;5321420;26;20055;-92
2024/04/22 10:31:36;;;;;;;77.88;73.22;;;;;;;;;;5346903;26;20329;-93
2024/04/22 10:34:03;;;;;;;67.63;63.50;;;;;;;;;;5339728;21;20012;-91
2024/04/22 10:36:29;;;;;;;61.55;57.95;;;;;;;;;;5350632;26;20000;-91
2024/04/22 10:38:55;;;;;;;65.68;61.75;;;;;;;;;;5356745;26;20004;-92
2024/04/22 10:41:21;;;;;;;74.32;69.97;;;;;;;;;;5357412;26;20412;-89
2024/04/22 10:48:52;;;;;;;66.45;62.53;;;;;;;;;;5384067;26;20000;-91
2024/04/22 10:51:28;;;;;;;92.32;86.88;;;;;;;;;;5355565;26;19992;-92
2024/04/22 10:54:26;;;;;;;73.57;69.28;;;;;;;;;;5356184;26;19997;-95
2024/04/22 10:56:53;;;;;;;54.45;51.13;;;;;;;;;;5356457;26;20438;-92
2024/04/22 10:59:20;;;;;;;79.32;74.82;;;;;;;;;;5327774;26;20016;-93
2024/04/22 11:01:52;;;;;;;82.80;77.88;;;;;;;;;;5320365;26;20004;-91
2024/04/22 11:04:19;;;;;;;75.35;70.97;;;;;;;;;;5320053;26;19997;-92
2024/04/22 11:06:45;;;;;;;83.75;78.63;;;;;;;;;;5320282;26;20508;-92
2024/04/22 11:09:14;;;;;;;72.45;68.22;;;;;;;;;;5329499;26;20449;-92
2024/04/22 11:11:41;;;;;;;63.72;59.28;;;;;;;;;;5354709;26;20004;-91
2024/04/22 11:14:09;;;;;;;57.35;54.08;;;;;;;;;;5354692;26;20016;-92
2024/04/22 11:16:44;;;;;;;57.78;54.45;;;;;;;;;;5356269;26;20000;-92
2024/04/22 11:19:13;;;;;;;57.10;53.47;;;;;;;;;;5355747;26;20065;-91
2024/04/22 11:21:45;;;;;;;59.33;55.97;;;;;;;;;;5325979;26;20019;-91
2024/04/22 11:25:05;;;;;;;61.67;58.17;;;;;;;;;;5320085;26;20527;-90
2024/04/22 11:27:25;;;;;;;63.10;59.55;;;;;;;;;;5350910;26;20350;-92
2024/04/22 11:29:52;;;;;;;57.53;54.22;;;;;;;;;;5325208;26;19997;-92
2024/04/22 11:35:18;;;;;;;66.15;61.97;;;;;;;;;;5369535;21;20557;-92
2024/04/22 11:37:47;;;;;;;62.15;58.40;;;;;;;;;;5320693;26;20077;-92
2024/04/22 11:40:13;;;;;;;56.67;53.40;;;;;;;;;;5320855;26;20441;-92
2024/04/22 11:42:48;;;;;;;57.67;54.28;;;;;;;;;;5320772;26;20508;-91
2024/04/22 11:45:15;;;;;;;59.80;56.35;;;;;;;;;;5320741;26;20008;-91
2024/04/22 11:47:57;;;;;;;49.88;47.00;;;;;;;;;;5320636;26;20066;-92
2024/04/22 11:50:23;;;;;;;62.42;58.85;;;;;;;;;;5323315;26;20338;-91
2024/04/22 11:52:52;;;;;;;66.88;62.85;;;;;;;;;;5320644;26;19996;-91
2024/04/22 11:55:19;;;;;;;66.22;62.35;;;;;;;;;;5321493;26;20005;-92
2024/04/22 11:57:48;;;;;;;61.30;57.55;;;;;;;;;;5314750;27;20009;-92
2024/04/22 12:00:14;;;;;;;64.70;60.88;;;;;;;;;;5320332;26;20082;-93
2024/04/22 12:02:40;;;;;;;62.72;59.05;;;;;;;;;;5320583;26;20009;-91
2024/04/22 12:05:12;;;;;;;62.85;59.13;;;;;;;;;;5320886;26;20036;-93
2024/04/22 12:10:48;;;;;;;61.97;58.45;;;;;;;;;;5267949;27;20013;-92
2024/04/22 12:13:15;;;;;;;71.95;67.70;;;;;;;;;;5245283;27;20083;-93
2024/04/22 12:15:42;;;;;;;81.53;76.68;;;;;;;;;;5217732;27;20015;-92
2024/04/22 12:18:14;;;;;;;61.97;58.08;;;;;;;;;;5218995;27;20014;-92
2024/04/22 12:21:03;;;;;;;72.53;68.13;;;;;;;;;;5220454;27;20031;-93
2024/04/22 12:23:29;;;;;;;79.68;75.10;;;;;;;;;;5187524;27;20010;-91
2024/04/22 12:26:06;;;;;;;78.80;74.05;;;;;;;;;;5224858;27;20046;-91
2024/04/22 12:28:36;;;;;;;97.22;91.43;;;;;;;;;;5279046;26;20137;-91
2024/04/22 12:31:04;;;;;;;90.80;85.45;;;;;;;;;;5252511;27;20045;-91
2024/04/22 12:33:45;;;;;;;88.15;82.88;;;;;;;;;;5256477;27;20440;-93
2024/04/22 12:36:11;;;;;;;80.53;75.72;;;;;;;;;;5244073;27;19999;-91
2024/04/22 12:38:38;;;;;;;90.78;85.25;;;;;;;;;;5278099;27;19993;-91
2024/04/22 12:41:04;;;;;;;90.88;85.43;;;;;;;;;;5314330;27;20415;-91
2024/04/22 12:43:30;;;;;;;88.93;83.70;;;;;;;;;;5314015;27;20028;-91
2024/04/22 12:45:56;;;;;;;77.15;72.68;;;;;;;;;;5313982;27;19994;-91
2024/04/22 12:51:11;;;;;;;76.57;72.20;;;;;;;;;;5295363;27;20016;-92
2024/04/22 12:53:37;;;;;;;90.82;85.72;;;;;;;;;;5285565;27;20014;-90
2024/04/22 12:56:06;;;;;;;102.40;96.63;;;;;;;;;;5313755;27;19997;-92
2024/04/22 12:58:32;;;;;;;97.45;91.43;;;;;;;;;;5284317;27;20002;-92
2024/04/22 13:00:58;;;;;;;90.30;84.95;;;;;;;;;;5280219;27;20402;-91
2024/04/22 13:03:24;;;;;;;86.72;81.57;;;;;;;;;;5285920;27;20041;-93
2024/04/22 13:05:52;;;;;;;93.90;88.20;;;;;;;;;;5314513;27;19998;-95
2024/04/22 13:08:18;;;;;;;85.10;79.90;;;;;;;;;;5275302;27;20411;-93
2024/04/22 13:10:45;;;;;;;72.97;68.53;;;;;;;;;;5283816;27;20014;-94
2024/04/22 13:16:14;;;;;;;74.55;70.05;;;;;;;;;;5278478;27;20133;-93
2024/04/22 13:18:40;;;;;;;63.72;59.92;;;;;;;;;;5250348;27;19998;-93
2024/04/22 13:21:24;;;;;;;58.63;55.03;;;;;;;;;;5250059;27;19998;-94
2024/04/22 13:23:56;;;;;;;53.85;50.67;;;;;;;;;;5250598;27;20017;-95
2024/04/22 13:26:22;;;;;;;55.58;52.17;;;;;;;;;;5250479;27;20332;-92
2024/04/22 13:28:54;;;;;;;56.75;52.70;;;;;;;;;;5222938;27;20011;-93
2024/04/22 13:31:20;;;;;;;53.83;50.45;;;;;;;;;;5217826;27;20085;-93
2024/04/22 13:33:46;;;;;;;58.25;54.55;;;;;;;;;;5216812;27;20006;-93
2024/04/22 13:36:13;;;;;;;61.30;57.47;;;;;;;;;;5217757;27;20014;-92
2024/04/22 13:38:44;;;;;;;55.00;51.75;;;;;;;;;;5217292;27;20460;-91
2024/04/22 13:41:10;;;;;;;53.45;50.30;;;;;;;;;;5216868;27;20014;-92
2024/04/22 13:43:36;;;;;;;55.88;52.55;;;;;;;;;;5233652;27;20002;-93
2024/04/22 13:46:02;;;;;;;54.03;50.85;;;;;;;;;;5284682;27;20001;-93
2024/04/22 13:48:31;;;;;;;62.45;58.80;;;;;;;;;;5284385;27;20001;-91
2024/04/22 13:50:57;;;;;;;55.50;52.20;;;;;;;;;;5285110;27;20015;-92
2024/04/22 13:53:26;;;;;;;61.25;57.75;;;;;;;;;;5286038;27;20009;-92
2024/04/22 13:55:57;;;;;;;64.20;60.38;;;;;;;;;;5285913;27;20019;-91
2024/04/22 13:58:28;;;;;;;65.20;61.38;;;;;;;;;;5285326;27;20001;-91
2024/04/22 14:00:54;;;;;;;70.55;66.32;;;;;;;;;;5288695;27;20071;-93
2024/04/22 14:03:20;;;;;;;79.45;74.60;;;;;;;;;;5285628;27;20022;-92
2024/04/22 14:05:46;;;;;;;75.60;70.95;;;;;;;;;;5289209;27;20034;-91
2024/04/22 14:11:11;;;;;;;86.03;81.07;;;;;;;;;;5260479;27;20072;-92
2024/04/22 14:13:41;;;;;;;79.78;75.28;;;;;;;;;;5484230;21;20016;-93
2024/04/22 14:16:12;;;;;;;71.03;66.97;;;;;;;;;;5320461;27;20037;-92
2024/04/22 14:18:44;;;;;;;69.70;65.65;;;;;;;;;;5314234;27;20075;-92
2024/04/22 14:21:17;;;;;;;83.80;79.07;;;;;;;;;;5312860;27;20037;-94
2024/04/22 14:23:47;;;;;;;73.75;68.85;;;;;;;;;;5313102;27;19994;-95
2024/04/22 14:26:18;;;;;;;77.45;72.82;;;;;;;;;;5289544;27;20008;-92
2024/04/22 14:28:44;;;;;;;66.95;63.15;;;;;;;;;;5286011;27;20121;-92
2024/04/22 14:31:10;;;;;;;67.45;63.58;;;;;;;;;;5287151;27;20009;-92
2024/04/22 14:33:50;;;;;;;63.83;60.17;;;;;;;;;;5288217;27;19998;-94
2024/04/22 14:36:18;;;;;;;61.47;57.72;;;;;;;;;;5312588;27;20001;-93
2024/04/22 14:42:07;;;;;;;61.22;57.72;;;;;;;;;;5244681;27;20022;-93
2024/04/22 14:44:36;;;;;;;;;;;;;;;;;;5286891;27;20102;-93
2024/04/22 14:47:04;;;;;;;57.60;54.33;;;;;;;;;;5314721;27;19926;-92
2024/04/22 14:49:33;;;;;;;63.03;59.53;;;;;;;;;;5286823;27;20022;-92
2024/04/22 14:52:00;;;;;;;58.13;54.83;;;;;;;;;;5285719;27;20057;-93
2024/04/22 14:54:44;;;;;;;59.67;56.35;;;;;;;;;;5281909;27;19998;-91
2024/04/22 14:57:10;;;;;;;65.63;61.78;;;;;;;;;;5282880;27;20017;-92
2024/04/22 14:59:36;;;;;;;59.83;56.40;;;;;;;;;;5318872;27;20001;-94
2024/04/22 15:02:09;;;;;;;57.47;54.17;;;;;;;;;;5324837;27;20009;-95
2024/04/22 15:04:59;;;;;;;59.47;55.97;;;;;;;;;;5255940;27;20014;-93
2024/04/22 15:07:26;;;;;;;63.55;60.03;;;;;;;;;;5223322;27;20014;-93
2024/04/22 15:10:13;;;;;;;69.05;65.25;;;;;;;;;;5249352;27;20003;-93
2024/04/22 15:12:40;;;;;;;62.97;59.45;;;;;;;;;;5260919;27;19995;-95
2024/04/22 15:15:09;;;;;;;56.85;53.15;;;;;;;;;;5243668;27;20000;-91
2024/04/22 15:17:38;;;;;;;59.08;55.75;;;;;;;;;;5193380;27;20003;-93
2024/04/22 15:20:27;;;;;;;70.30;66.28;;;;;;;;;;5217335;27;19996;-93
2024/04/22 15:22:54;;;;;;;60.33;56.95;;;;;;;;;;5189082;27;20055;-93
2024/04/22 15:25:22;;;;;;;58.22;54.83;;;;;;;;;;5192182;27;19992;-92
2024/04/22 15:30:42;;;;;;;79.47;74.78;;;;;;;;;;5217953;27;20003;-93
2024/04/22 15:33:09;;;;;;;66.28;62.65;;;;;;;;;;5187969;27;20060;-92
2024/04/22 15:35:44;;;;;;;77.85;73.25;;;;;;;;;;5237655;27;19994;-94
2024/04/22 15:38:11;;;;;;;65.75;61.83;;;;;;;;;;5321091;27;20554;-92
2024/04/22 15:40:39;;;;;;;72.95;68.90;;;;;;;;;;5328473;27;20026;-94
2024/04/22 15:43:06;;;;;;;58.33;54.75;;;;;;;;;;5325888;27;20005;-94
2024/04/22 15:45:34;;;;;;;58.08;54.67;;;;;;;;;;5319482;27;19998;-93
2024/04/22 15:48:01;;;;;;;54.65;51.42;;;;;;;;;;5318895;27;20026;-94
2024/04/22 15:50:39;;;;;;;68.07;64.13;;;;;;;;;;5317391;27;20054;-93
2024/04/22 15:53:12;;;;;;;65.28;61.55;;;;;;;;;;5316185;27;20005;-94
2024/04/22 15:56:17;;;;;;;65.05;61.30;;;;;;;;;;5352806;26;20028;-93
2024/04/22 15:58:46;;;;;;;64.38;60.63;;;;;;;;;;5183591;27;20009;-92
2024/04/22 16:01:15;;;;;;;72.93;68.88;;;;;;;;;;5160372;27;20004;-94
2024/04/22 16:03:41;;;;;;;65.25;61.60;;;;;;;;;;5154654;27;20000;-94
2024/04/22 16:06:27;;;;;;;59.72;56.40;;;;;;;;;;5153719;27;20087;-92
2024/04/22 16:09:11;;;;;;;63.08;59.47;;;;;;;;;;5156266;27;20075;-92
2024/04/22 16:11:40;;;;;;;;;;;;;;;;;;5171727;27;20019;-92
2024/04/22 16:14:09;;;;;;;59.20;55.88;;;;;;;;;;5188219;27;19934;-93
2024/04/22 16:16:47;;;;;;;63.70;60.13;;;;;;;;;;5159737;27;20108;-93
2024/04/22 16:19:25;;;;;;;70.38;66.40;;;;;;;;;;5155852;27;20387;-94
2024/04/22 16:54:59;;;;;;;52.03;48.97;;;;;;;;;;5335701;26;20015;-96
2024/04/22 17:00:54;;;;;;;45.90;43.15;;;;;;;;;;5383214;26;20066;-96
2024/04/22 17:06:24;;;;;;;42.33;39.80;;;;;;;;;;5356162;26;20015;-93
2024/04/22 17:20:59;;;;;;;38.67;36.42;;;;;;;;;;5384031;26;20512;-94
2024/04/22 17:23:27;;;;;;;37.05;34.75;;;;;;;;;;5354745;26;20007;-93
2024/04/22 17:26:05;;;;;;;35.40;33.30;;;;;;;;;;5355258;26;20004;-94
2024/04/22 17:28:31;;;;;;;32.13;30.23;;;;;;;;;;5466581;21;20046;-91
2024/04/22 17:30:57;;;;;;;42.55;39.92;;;;;;;;;;5287205;27;20002;-92
2024/04/22 17:33:35;;;;;;;37.08;34.88;;;;;;;;;;5287325;27;20398;-93
2024/04/22 17:36:01;;;;;;;40.42;37.92;;;;;;;;;;5272708;27;20006;-94
2024/04/22 17:38:30;;;;;;;37.85;35.45;;;;;;;;;;5267541;27;20478;-94
2024/04/22 17:40:59;;;;;;;38.13;35.83;;;;;;;;;;5339047;22;20022;-94
2024/04/22 17:46:11;;;;;;;40.50;38.03;;;;;;;;;;5767783;21;20001;-93
2024/04/22 17:48:37;;;;;;;36.13;33.83;;;;;;;;;;5326674;26;20008;-93
2024/04/22 17:51:06;;;;;;;40.75;38.28;;;;;;;;;;5324167;26;19993;-92
2024/04/22 17:53:32;;;;;;;32.30;30.15;;;;;;;;;;5335574;26;19997;-92
2024/04/22 17:56:00;;;;;;;31.58;29.48;;;;;;;;;;5355186;26;20001;-92
2024/04/22 17:58:26;;;;;;;36.40;33.80;;;;;;;;;;5322197;26;20011;-93
2024/04/22 18:00:52;;;;;;;31.88;29.55;;;;;;;;;;5313703;27;20025;-94
2024/04/22 18:06:05;;;;;;;29.65;27.60;;;;;;;;;;5249110;27;19997;-91